Pendleton, Texas
Current Conditions -  °F | °C
As of 7:35 AM on Monday 22 Dec 2014 (Local Time) from KTPL Reporting Station
Clear Clear  
Wind Chill: 55°   Ceiling: Unl
Heat Index: 55°   Visibility: 10mi
Dew Point: 48°   Wind: 16mph
Humidity: 77%   Direction: 200°SSW
Pressure: 29.66"   Gusts: NA
Location:  31.19°N, 97.35°W
Report Text: KTPL 221335Z AUTO 20014KT 10SM CLR 13/09 A2966 RMK AO1
Loading
Personal Weather Stations






























Interactive Weather Map New forecast layout! Learn more

10-Day Weather Forecast

Advertisements
Track Severe Weather on mobile